Time;durP1;ratioP1;P1;durP2;ratioP2;P2;SDS_P1;SDS_P2;PMS_P1;PMS_P2;Temp;Humidity;BMP_temperature;BMP_pressure;BME280_temperature;BME280_humidity;BME280_pressure;Samples;Min_cycle;Max_cycle;Signal;HPM_P1;HPM_P2
2022/10/08 00:01:22;;;;;;;0.62;0.62;;;10.40;99.90;;;;;;4414571;32;20100;-77
2022/10/08 00:03:50;;;;;;;0.70;0.70;;;10.40;99.90;;;;;;4403867;32;20093;-76
2022/10/08 00:06:20;;;;;;;2.33;0.98;;;10.30;99.90;;;;;;4399695;32;20101;-77
2022/10/08 00:08:56;;;;;;;0.75;0.75;;;10.30;99.90;;;;;;4418774;32;20081;-76
2022/10/08 00:11:24;;;;;;;0.30;0.30;;;10.40;99.90;;;;;;4415382;32;20431;-76
2022/10/08 00:13:52;;;;;;;0.55;0.55;;;10.30;99.90;;;;;;4419104;32;20089;-77
2022/10/08 00:16:22;;;;;;;0.50;0.47;;;10.30;99.90;;;;;;4413373;32;20077;-76
2022/10/08 00:18:49;;;;;;;0.50;0.50;;;10.40;99.90;;;;;;4411709;32;20140;-76
2022/10/08 00:21:18;;;;;;;0.30;0.30;;;10.50;99.90;;;;;;4416290;32;20065;-76
2022/10/08 00:23:45;;;;;;;0.50;0.50;;;10.50;99.90;;;;;;4417025;32;20517;-77
2022/10/08 00:26:11;;;;;;;0.45;0.45;;;10.50;99.90;;;;;;4415019;32;20097;-77
2022/10/08 00:28:40;;;;;;;0.40;0.40;;;10.50;99.90;;;;;;4417503;32;20148;-76
2022/10/08 00:31:08;;;;;;;0.40;0.40;;;10.40;99.90;;;;;;4416548;32;20093;-76
2022/10/08 00:33:35;;;;;;;0.55;0.55;;;10.40;99.90;;;;;;4407630;32;20419;-77
2022/10/08 00:36:02;;;;;;;0.40;0.40;;;10.40;99.90;;;;;;4396444;32;20156;-76
2022/10/08 00:38:28;;;;;;;0.60;0.60;;;10.30;99.90;;;;;;4413685;32;20073;-76
2022/10/08 00:40:54;;;;;;;0.50;0.50;;;10.50;99.90;;;;;;4419201;32;20085;-76
2022/10/08 00:43:38;;;;;;;0.40;0.40;;;10.50;99.90;;;;;;4415240;32;20132;-76
2022/10/08 00:46:05;;;;;;;6.32;0.88;;;10.60;99.90;;;;;;4399850;32;20077;-76
2022/10/08 00:48:31;;;;;;;1.20;1.10;;;10.70;99.90;;;;;;4401483;32;20439;-76
2022/10/08 00:50:56;;;;;;;0.40;0.40;;;10.70;99.90;;;;;;4415574;32;20066;-76
2022/10/08 00:53:22;;;;;;;0.93;0.88;;;10.80;99.90;;;;;;4416977;32;20086;-76
2022/10/08 00:55:47;;;;;;;0.68;0.68;;;10.90;99.90;;;;;;4418291;32;20061;-77
2022/10/08 00:58:20;;;;;;;0.95;0.80;;;10.90;99.90;;;;;;4417888;32;20089;-76
2022/10/08 01:00:46;;;;;;;0.47;0.47;;;10.90;99.90;;;;;;4415258;32;20061;-76
2022/10/08 01:03:12;;;;;;;2.37;1.75;;;10.90;99.90;;;;;;4409780;32;20580;-76
2022/10/08 01:05:54;;;;;;;0.77;0.77;;;10.90;99.90;;;;;;4400804;32;20082;-76
2022/10/08 01:08:33;;;;;;;0.73;0.52;;;10.80;99.90;;;;;;4411137;32;20117;-77
2022/10/08 01:11:15;;;;;;;1.15;0.55;;;10.90;99.90;;;;;;4418724;32;20073;-76
2022/10/08 01:13:55;;;;;;;3.10;1.40;;;10.70;99.90;;;;;;4416186;32;20114;-76
2022/10/08 01:16:48;;;;;;;1.65;1.02;;;10.60;99.90;;;;;;4415497;32;20089;-76
2022/10/08 01:19:22;;;;;;;1.08;1.02;;;10.70;99.90;;;;;;4405088;32;20102;-75
2022/10/08 01:22:17;;;;;;;2.17;0.88;;;10.70;99.90;;;;;;4417801;32;20089;-76
2022/10/08 01:25:49;;;;;;;0.60;0.60;;;10.70;99.90;;;;;;4405244;32;20069;-76
2022/10/08 01:27:45;;;;;;;0.45;0.45;;;10.70;99.90;;;;;;4407343;32;20066;-75
2022/10/08 01:30:13;;;;;;;2.55;1.58;;;10.70;99.90;;;;;;4416527;32;20144;-76
2022/10/08 01:32:46;;;;;;;15.40;1.75;;;10.80;99.90;;;;;;4414887;32;20083;-76
2022/10/08 01:35:19;;;;;;;0.65;0.52;;;10.70;99.90;;;;;;4398694;32;20085;-76
2022/10/08 01:37:46;;;;;;;1.12;0.70;;;10.70;99.90;;;;;;4414938;32;20085;-76
2022/10/08 01:40:17;;;;;;;0.50;0.50;;;10.80;99.90;;;;;;4418779;32;20114;-77
2022/10/08 01:42:45;;;;;;;0.50;0.50;;;10.80;99.90;;;;;;4417387;32;20510;-77
2022/10/08 01:45:16;;;;;;;0.70;0.70;;;10.80;99.90;;;;;;4419091;32;20093;-76
2022/10/08 01:47:44;;;;;;;1.30;0.80;;;10.70;99.90;;;;;;4415960;32;20073;-76
2022/10/08 01:50:17;;;;;;;0.32;0.32;;;10.70;99.90;;;;;;4415451;32;20564;-77
2022/10/08 01:52:51;;;;;;;1.15;0.90;;;10.70;99.90;;;;;;4422978;32;20077;-76
2022/10/08 01:55:24;;;;;;;0.50;0.50;;;10.70;99.90;;;;;;4416035;32;20132;-77
2022/10/08 01:57:52;;;;;;;0.40;0.40;;;10.70;99.90;;;;;;4416133;32;20073;-76
2022/10/08 02:00:17;;;;;;;1.12;0.95;;;10.80;99.90;;;;;;4420161;32;20640;-77
2022/10/08 02:02:43;;;;;;;0.50;0.50;;;10.80;99.90;;;;;;4417161;32;20089;-76
2022/10/08 02:05:10;;;;;;;0.30;0.30;;;10.70;99.90;;;;;;4399221;32;20073;-76
2022/10/08 02:07:40;;;;;;;4.65;0.85;;;10.70;99.90;;;;;;4410143;32;20116;-76
2022/10/08 02:10:08;;;;;;;1.12;0.93;;;10.70;99.90;;;;;;4417140;32;20731;-77
2022/10/08 02:12:35;;;;;;;0.52;0.52;;;10.70;99.90;;;;;;4418970;32;20073;-77
2022/10/08 02:15:03;;;;;;;0.50;0.50;;;10.70;99.90;;;;;;4416281;32;20086;-75
2022/10/08 02:17:50;;;;;;;0.37;0.37;;;10.70;99.90;;;;;;4417019;32;20616;-76
2022/10/08 02:20:32;;;;;;;1.55;0.95;;;10.70;99.90;;;;;;4419659;32;20074;-75
2022/10/08 02:23:21;;;;;;;1.85;1.02;;;10.70;99.90;;;;;;4419573;32;20093;-75
2022/10/08 02:25:52;;;;;;;0.40;0.40;;;10.80;99.90;;;;;;4409584;32;20113;-75
2022/10/08 02:28:30;;;;;;;0.55;0.55;;;10.80;99.90;;;;;;4421347;32;20061;-77
2022/10/08 02:31:09;;;;;;;0.50;0.50;;;10.80;99.90;;;;;;4415937;32;20501;-77
2022/10/08 02:33:58;;;;;;;0.70;0.70;;;10.80;99.90;;;;;;4406118;32;20058;-75
2022/10/08 02:36:28;;;;;;;0.50;0.50;;;10.70;99.90;;;;;;4390261;32;20156;-75
2022/10/08 02:38:58;;;;;;;2.50;1.60;;;10.80;99.90;;;;;;4416471;32;20058;-75
2022/10/08 02:41:29;;;;;;;0.70;0.70;;;10.80;99.90;;;;;;4417610;32;20085;-76
2022/10/08 02:43:58;;;;;;;0.30;0.30;;;10.80;99.90;;;;;;4415714;32;20407;-76
2022/10/08 02:46:27;;;;;;;0.98;0.65;;;10.70;99.90;;;;;;4417516;32;20112;-76
2022/10/08 02:49:00;;;;;;;0.88;0.80;;;10.70;99.90;;;;;;4418929;32;20348;-76
2022/10/08 02:51:26;;;;;;;1.55;1.02;;;10.70;99.90;;;;;;4415594;32;20093;-76
2022/10/08 02:53:52;;;;;;;0.40;0.40;;;10.60;99.90;;;;;;4417456;32;20082;-76
2022/10/08 02:56:24;;;;;;;1.12;1.02;;;10.70;99.90;;;;;;4418480;32;20065;-76
2022/10/08 02:58:50;;;;;;;1.10;0.70;;;10.60;99.90;;;;;;4419691;32;20062;-75
2022/10/08 03:01:25;;;;;;;0.40;0.40;;;10.50;99.90;;;;;;4417639;32;20072;-75
2022/10/08 03:04:16;;;;;;;1.65;0.85;;;10.40;99.90;;;;;;4405530;32;20085;-76
2022/10/08 03:06:42;;;;;;;0.52;0.52;;;10.40;99.90;;;;;;4403533;32;20095;-75
2022/10/08 03:09:11;;;;;;;0.55;0.55;;;10.40;99.90;;;;;;4417151;32;20419;-75
2022/10/08 03:11:37;;;;;;;0.70;0.70;;;10.40;99.90;;;;;;4416923;32;20191;-75
2022/10/08 03:14:08;;;;;;;0.73;0.73;;;10.30;99.90;;;;;;4418002;32;20165;-75
2022/10/08 03:16:39;;;;;;;0.50;0.50;;;10.30;99.90;;;;;;4413916;32;20435;-76
2022/10/08 03:19:07;;;;;;;1.42;1.02;;;10.20;99.90;;;;;;4419279;32;20464;-77
2022/10/08 03:21:33;;;;;;;0.60;0.60;;;10.30;99.90;;;;;;4419228;32;20097;-77
2022/10/08 03:23:59;;;;;;;0.70;0.70;;;10.30;99.90;;;;;;4416120;32;20125;-77
2022/10/08 03:26:24;;;;;;;0.62;0.62;;;10.30;99.90;;;;;;4421043;32;20110;-77
2022/10/08 03:28:52;;;;;;;4.03;1.70;;;10.30;99.90;;;;;;4418309;32;20172;-77
2022/10/08 03:31:17;;;;;;;0.95;0.90;;;10.40;99.90;;;;;;4415941;32;20121;-77
2022/10/08 03:33:43;;;;;;;1.23;0.95;;;10.40;99.90;;;;;;4405220;32;20073;-77
2022/10/08 03:36:08;;;;;;;21.30;1.65;;;10.30;99.90;;;;;;4394295;32;20066;-77
2022/10/08 03:38:34;;;;;;;0.60;0.60;;;10.40;99.90;;;;;;4414338;32;20065;-77
2022/10/08 03:40:59;;;;;;;7.80;1.50;;;10.40;99.90;;;;;;4417352;32;20094;-77
2022/10/08 03:43:31;;;;;;;2.12;1.20;;;10.40;99.90;;;;;;4416298;32;20077;-76
2022/10/08 03:45:56;;;;;;;0.80;0.70;;;10.30;99.90;;;;;;4416698;32;20582;-76
2022/10/08 03:48:22;;;;;;;0.40;0.40;;;10.30;99.90;;;;;;4423235;32;20065;-75
2022/10/08 03:50:53;;;;;;;0.62;0.62;;;10.40;99.90;;;;;;4415197;32;20604;-75
2022/10/08 03:53:19;;;;;;;;;;;10.40;99.90;;;;;;4417706;32;20065;-75
2022/10/08 03:55:44;;;;;;;1.12;0.60;;;10.50;99.90;;;;;;4420019;32;20017;-76
2022/10/08 03:58:10;;;;;;;0.60;0.60;;;10.50;99.90;;;;;;4415610;32;20081;-76
2022/10/08 04:00:35;;;;;;;5.07;0.82;;;10.50;99.90;;;;;;4417676;32;20053;-76
2022/10/08 04:03:00;;;;;;;0.73;0.70;;;10.50;99.90;;;;;;4410637;32;20058;-76
2022/10/08 04:05:26;;;;;;;0.73;0.70;;;10.40;99.90;;;;;;4394941;32;20066;-76
2022/10/08 04:07:51;;;;;;;0.50;0.47;;;10.50;99.90;;;;;;4414236;32;20084;-76
2022/10/08 04:10:17;;;;;;;1.62;1.00;;;10.60;99.90;;;;;;4421543;32;20439;-76
2022/10/08 04:12:42;;;;;;;0.43;0.43;;;10.70;99.90;;;;;;4415682;32;20062;-76
2022/10/08 04:15:08;;;;;;;0.62;0.62;;;10.70;99.90;;;;;;4417064;32;20782;-76
2022/10/08 04:17:34;;;;;;;0.60;0.60;;;10.70;99.90;;;;;;4416513;32;20049;-76
2022/10/08 04:19:59;;;;;;;0.68;0.65;;;10.60;99.90;;;;;;4415640;32;20451;-76
2022/10/08 04:22:25;;;;;;;1.25;0.98;;;10.60;99.90;;;;;;4418092;32;20078;-76
2022/10/08 04:24:50;;;;;;;0.70;0.70;;;10.60;99.90;;;;;;4421332;32;20105;-76
2022/10/08 04:27:15;;;;;;;0.40;0.40;;;10.60;99.90;;;;;;4418141;32;20065;-76
2022/10/08 04:29:41;;;;;;;4.03;1.08;;;10.70;99.90;;;;;;4416523;32;20120;-76
2022/10/08 04:32:06;;;;;;;0.50;0.50;;;10.70;99.90;;;;;;4416865;32;20508;-76
2022/10/08 04:34:32;;;;;;;1.35;0.55;;;10.70;99.90;;;;;;4403895;32;20088;-75
2022/10/08 04:36:57;;;;;;;0.55;0.55;;;10.70;99.90;;;;;;4405552;32;20065;-76
2022/10/08 04:39:23;;;;;;;0.88;0.73;;;10.90;99.90;;;;;;4412944;32;20074;-75
2022/10/08 04:41:48;;;;;;;1.90;0.80;;;10.80;99.90;;;;;;4417667;32;20089;-76
2022/10/08 04:44:14;;;;;;;0.60;0.60;;;10.80;99.90;;;;;;4418467;32;20092;-76
2022/10/08 04:46:40;;;;;;;0.52;0.52;;;10.80;99.90;;;;;;4415382;32;20116;-76
2022/10/08 04:49:06;;;;;;;0.50;0.50;;;10.80;99.90;;;;;;4414422;32;20462;-76
2022/10/08 04:51:31;;;;;;;0.88;0.88;;;10.80;99.90;;;;;;4418870;32;20069;-76
2022/10/08 04:53:57;;;;;;;0.95;0.88;;;10.60;99.90;;;;;;4417377;32;20124;-76
2022/10/08 04:56:25;;;;;;;0.52;0.45;;;10.60;99.90;;;;;;4416246;32;20211;-76
2022/10/08 04:58:51;;;;;;;0.73;0.73;;;10.50;99.90;;;;;;4419559;32;22122;-76
2022/10/08 05:01:18;;;;;;;0.50;0.50;;;10.50;99.90;;;;;;4413952;32;20145;-76
2022/10/08 05:03:46;;;;;;;1.17;0.70;;;10.40;99.90;;;;;;4401351;32;20085;-75
2022/10/08 05:06:14;;;;;;;0.45;0.45;;;10.40;99.90;;;;;;4396864;32;20501;-75
2022/10/08 05:08:40;;;;;;;0.45;0.45;;;10.40;99.90;;;;;;4415467;32;20061;-76
2022/10/08 05:11:06;;;;;;;0.60;0.60;;;10.30;99.90;;;;;;4414205;32;20082;-76
2022/10/08 05:13:32;;;;;;;0.75;0.75;;;10.30;99.90;;;;;;4416307;32;20110;-76
2022/10/08 05:16:03;;;;;;;0.30;0.30;;;10.20;99.90;;;;;;4412612;32;20471;-76
2022/10/08 05:18:30;;;;;;;1.37;0.80;;;10.20;99.90;;;;;;4412795;32;20587;-75
2022/10/08 05:20:56;;;;;;;0.45;0.45;;;10.20;99.90;;;;;;4415558;32;20152;-75
2022/10/08 05:23:21;;;;;;;0.90;0.70;;;10.10;99.90;;;;;;4418421;32;20121;-76
2022/10/08 05:25:47;;;;;;;0.95;0.60;;;10.10;99.90;;;;;;4415293;32;20090;-75
2022/10/08 05:28:12;;;;;;;2.20;1.40;;;10.10;99.90;;;;;;4414889;32;20078;-75
2022/10/08 05:30:38;;;;;;;0.40;0.40;;;10.10;99.90;;;;;;4417740;32;20082;-76
2022/10/08 05:33:03;;;;;;;0.45;0.45;;;10.10;99.90;;;;;;4406584;32;20080;-75
2022/10/08 05:35:29;;;;;;;1.65;1.37;;;10.10;99.90;;;;;;4397183;32;20074;-75
2022/10/08 05:37:54;;;;;;;0.50;0.50;;;10.10;99.90;;;;;;4413909;32;20094;-75
2022/10/08 05:40:20;;;;;;;1.00;0.62;;;10.10;99.90;;;;;;4423580;32;20207;-75
2022/10/08 05:42:46;;;;;;;0.40;0.40;;;10.20;99.90;;;;;;4417558;32;20062;-76
2022/10/08 05:45:12;;;;;;;1.55;0.40;;;10.20;99.90;;;;;;4415735;32;20099;-76
2022/10/08 05:47:37;;;;;;;0.57;0.50;;;10.20;99.90;;;;;;4415867;32;20439;-75
2022/10/08 05:50:03;;;;;;;2.10;1.15;;;10.20;99.90;;;;;;4413925;32;20227;-76
2022/10/08 05:52:29;;;;;;;1.08;1.00;;;10.20;99.90;;;;;;4415213;32;20165;-76
2022/10/08 05:54:55;;;;;;;1.05;0.95;;;10.20;99.90;;;;;;4415190;32;20058;-77
2022/10/08 05:57:20;;;;;;;0.47;0.43;;;10.30;99.90;;;;;;4413780;32;20116;-77
2022/10/08 05:59:46;;;;;;;0.50;0.50;;;10.30;99.90;;;;;;4417445;32;20157;-77
2022/10/08 06:02:11;;;;;;;1.35;0.80;;;10.40;99.90;;;;;;4415532;32;20443;-77
2022/10/08 06:04:37;;;;;;;1.73;0.80;;;10.40;99.90;;;;;;4399562;32;20094;-77
2022/10/08 06:07:02;;;;;;;3.12;1.45;;;10.40;99.90;;;;;;4408589;32;20077;-77
2022/10/08 06:09:28;;;;;;;0.35;0.35;;;10.30;99.90;;;;;;4418234;32;20101;-77
2022/10/08 06:11:53;;;;;;;1.10;0.65;;;10.20;99.90;;;;;;4417447;32;20069;-77
2022/10/08 06:14:19;;;;;;;1.33;0.55;;;10.20;99.90;;;;;;4417696;32;20120;-77
2022/10/08 06:16:44;;;;;;;2.15;1.40;;;10.40;99.90;;;;;;4420492;32;20074;-77
2022/10/08 06:19:10;;;;;;;4.78;3.42;;;10.40;99.90;;;;;;4420908;32;20089;-77
2022/10/08 06:21:36;;;;;;;17.17;3.90;;;10.30;99.90;;;;;;4419634;32;20130;-77
2022/10/08 06:24:05;;;;;;;1.60;1.37;;;10.30;99.90;;;;;;4417441;32;20086;-75
2022/10/08 06:26:33;;;;;;;2.03;1.50;;;10.40;99.90;;;;;;4418663;32;20062;-77
2022/10/08 06:28:59;;;;;;;0.70;0.70;;;10.50;99.90;;;;;;4416048;32;20092;-77
2022/10/08 06:31:25;;;;;;;0.70;0.70;;;10.50;99.90;;;;;;4415621;32;20125;-77
2022/10/08 06:33:55;;;;;;;1.10;0.62;;;10.60;99.90;;;;;;4408443;32;20140;-77
2022/10/08 06:36:24;;;;;;;2.30;0.85;;;10.50;99.90;;;;;;4399092;32;20090;-76
2022/10/08 06:38:52;;;;;;;1.40;1.05;;;10.40;99.90;;;;;;4417470;32;20127;-77
2022/10/08 06:41:18;;;;;;;0.50;0.50;;;10.40;99.90;;;;;;4415374;32;20097;-77
2022/10/08 06:43:44;;;;;;;0.40;0.40;;;10.40;99.90;;;;;;4420983;32;20125;-77
2022/10/08 06:46:10;;;;;;;1.52;1.42;;;10.40;99.90;;;;;;4416744;32;20455;-77
2022/10/08 06:48:35;;;;;;;0.52;0.52;;;10.50;99.90;;;;;;4413948;32;20086;-77
2022/10/08 06:51:04;;;;;;;0.60;0.60;;;10.50;99.90;;;;;;4416655;32;20124;-77
2022/10/08 06:53:30;;;;;;;0.80;0.80;;;10.50;99.90;;;;;;4414824;32;20078;-77
2022/10/08 06:56:01;;;;;;;0.60;0.60;;;10.40;99.90;;;;;;4417934;32;20065;-77
2022/10/08 06:58:27;;;;;;;0.65;0.50;;;10.50;99.90;;;;;;4418923;32;20525;-77
2022/10/08 07:01:11;;;;;;;1.50;1.10;;;10.70;99.90;;;;;;4417512;32;20082;-77
2022/10/08 07:03:37;;;;;;;0.60;0.60;;;10.70;99.90;;;;;;4404713;32;20550;-77
2022/10/08 07:06:05;;;;;;;6.70;1.85;;;10.80;99.90;;;;;;4401667;32;20640;-77
2022/10/08 07:08:30;;;;;;;15.98;0.60;;;10.90;99.90;;;;;;4415881;32;20074;-77
2022/10/08 07:11:15;;;;;;;1.75;1.05;;;11.00;99.90;;;;;;4417279;32;20187;-77
2022/10/08 07:13:41;;;;;;;0.32;0.32;;;11.10;99.90;;;;;;4404704;32;20541;-77
2022/10/08 07:16:09;;;;;;;4.47;0.80;;;11.10;99.90;;;;;;4418215;32;20513;-77
2022/10/08 07:18:36;;;;;;;0.47;0.47;;;11.10;99.90;;;;;;4416398;32;20065;-78
2022/10/08 07:21:03;;;;;;;0.82;0.82;;;11.10;99.90;;;;;;4415638;32;20074;-77
2022/10/08 07:23:28;;;;;;;0.40;0.40;;;11.20;99.90;;;;;;4418211;32;20106;-77
2022/10/08 07:25:56;;;;;;;0.52;0.52;;;11.20;99.90;;;;;;4417115;32;20417;-77
2022/10/08 07:28:23;;;;;;;0.30;0.30;;;11.30;99.90;;;;;;4403908;32;20425;-77
2022/10/08 07:30:48;;;;;;;0.30;0.30;;;11.30;99.90;;;;;;4418438;32;20142;-76
2022/10/08 07:33:14;;;;;;;0.37;0.37;;;11.40;99.90;;;;;;4414524;32;20102;-76
2022/10/08 07:35:40;;;;;;;0.37;0.37;;;11.60;99.90;;;;;;4404341;32;20077;-75
2022/10/08 07:38:05;;;;;;;0.50;0.50;;;11.70;99.90;;;;;;4412426;32;20069;-76
2022/10/08 07:40:33;;;;;;;0.62;0.62;;;11.80;99.90;;;;;;4417627;32;20073;-77
2022/10/08 07:42:59;;;;;;;0.45;0.45;;;11.90;99.90;;;;;;4417422;32;20120;-77
2022/10/08 07:45:24;;;;;;;0.40;0.40;;;12.00;99.90;;;;;;4419711;32;20503;-77
2022/10/08 07:47:49;;;;;;;1.00;0.90;;;12.10;99.90;;;;;;4418879;32;20433;-76
2022/10/08 07:50:15;;;;;;;0.43;0.43;;;12.20;99.90;;;;;;4416910;32;20061;-77
2022/10/08 07:52:40;;;;;;;0.47;0.47;;;12.30;99.90;;;;;;4413970;32;20077;-76
2022/10/08 07:55:06;;;;;;;0.70;0.70;;;12.50;99.90;;;;;;4416153;32;20099;-76
2022/10/08 07:57:32;;;;;;;3.33;1.12;;;12.50;99.90;;;;;;4403404;32;20094;-77
2022/10/08 07:59:57;;;;;;;0.43;0.40;;;12.60;99.90;;;;;;4418258;32;20065;-76
2022/10/08 08:02:23;;;;;;;0.55;0.55;;;12.70;99.90;;;;;;4411596;32;20074;-76
2022/10/08 08:04:48;;;;;;;0.30;0.30;;;12.70;99.90;;;;;;4396631;32;20149;-76
2022/10/08 08:07:13;;;;;;;1.83;0.62;;;12.80;99.90;;;;;;4409048;32;20544;-77
2022/10/08 08:09:39;;;;;;;0.50;0.50;;;12.90;99.90;;;;;;4417660;32;20069;-76
2022/10/08 08:12:05;;;;;;;0.60;0.60;;;13.00;99.90;;;;;;4416779;32;20092;-76
2022/10/08 08:14:30;;;;;;;1.02;0.98;;;13.20;99.90;;;;;;4415949;32;20513;-76
2022/10/08 08:16:56;;;;;;;0.35;0.35;;;13.30;99.90;;;;;;4415250;32;20093;-76
2022/10/08 08:19:23;;;;;;;5.45;0.93;;;13.40;99.90;;;;;;4417498;32;20429;-75
2022/10/08 08:21:48;;;;;;;1.55;0.65;;;13.50;99.90;;;;;;4416360;32;20085;-76
2022/10/08 08:24:15;;;;;;;3.35;1.58;;;13.60;99.90;;;;;;4418063;32;20078;-76
2022/10/08 08:26:42;;;;;;;0.68;0.68;;;13.70;99.90;;;;;;4413227;32;20085;-77
2022/10/08 08:29:11;;;;;;;1.40;0.80;;;13.80;99.90;;;;;;4414597;32;20073;-76
2022/10/08 08:31:41;;;;;;;5.05;1.85;;;13.90;99.90;;;;;;4412298;32;20387;-76
2022/10/08 08:34:11;;;;;;;0.55;0.50;;;14.10;99.90;;;;;;4403274;32;116132;-77
2022/10/08 08:36:39;;;;;;;7.45;1.23;;;14.20;99.90;;;;;;4401375;32;20061;-76
2022/10/08 08:39:06;;;;;;;0.40;0.40;;;14.30;99.90;;;;;;4415183;32;20129;-76
2022/10/08 08:41:59;;;;;;;2.10;1.27;;;14.40;99.90;;;;;;4415367;32;20136;-77
2022/10/08 08:44:48;;;;;;;0.43;0.43;;;14.50;99.90;;;;;;4415816;32;20227;-76
2022/10/08 08:47:29;;;;;;;0.30;0.30;;;14.50;99.90;;;;;;4405165;32;20094;-77
2022/10/08 08:50:01;;;;;;;0.50;0.50;;;14.70;99.90;;;;;;4413723;32;20659;-76
2022/10/08 08:52:32;;;;;;;2.33;0.55;;;14.90;99.90;;;;;;4414857;32;20069;-76
2022/10/08 08:54:59;;;;;;;0.32;0.32;;;15.00;99.90;;;;;;4418059;32;20072;-78
2022/10/08 08:57:49;;;;;;;0.30;0.30;;;15.10;99.90;;;;;;4411557;32;20074;-78
2022/10/08 09:00:19;;;;;;;4.03;1.15;;;15.00;99.90;;;;;;4403151;32;20065;-78
2022/10/08 09:03:00;;;;;;;1.12;0.50;;;15.00;99.90;;;;;;4412946;32;20078;-77
2022/10/08 09:05:30;;;;;;;0.50;0.50;;;15.10;99.90;;;;;;4398597;32;20168;-77
2022/10/08 09:08:05;;;;;;;0.30;0.30;;;15.10;99.90;;;;;;4412861;32;20088;-76
2022/10/08 09:10:41;;;;;;;0.68;0.68;;;15.20;99.90;;;;;;4418113;32;20091;-76
2022/10/08 09:13:15;;;;;;;1.42;1.33;;;15.30;99.90;;;;;;4416210;32;20069;-77
2022/10/08 09:15:43;;;;;;;0.30;0.30;;;15.30;99.90;;;;;;4418353;32;20090;-76
2022/10/08 09:18:12;;;;;;;3.95;0.90;;;15.30;99.90;;;;;;4414198;32;20582;-77
2022/10/08 09:20:38;;;;;;;0.62;0.60;;;15.30;99.90;;;;;;4416878;32;20093;-76
2022/10/08 09:23:23;;;;;;;1.00;0.98;;;15.40;99.90;;;;;;4418885;32;20078;-77
2022/10/08 09:26:02;;;;;;;16.77;3.60;;;15.50;99.90;;;;;;4415939;32;20548;-77
2022/10/08 09:28:46;;;;;;;0.45;0.45;;;15.40;99.90;;;;;;4413800;32;20069;-77
2022/10/08 09:31:23;;;;;;;0.52;0.40;;;15.40;99.90;;;;;;4415161;32;20086;-77
2022/10/08 09:34:11;;;;;;;0.30;0.30;;;15.30;99.90;;;;;;4408748;32;20081;-76
2022/10/08 09:36:49;;;;;;;11.70;0.57;;;15.30;99.90;;;;;;4392424;32;20512;-77
2022/10/08 09:39:25;;;;;;;0.77;0.75;;;15.30;99.90;;;;;;4413237;32;20482;-77
2022/10/08 09:42:08;;;;;;;0.30;0.30;;;15.30;99.90;;;;;;4416511;32;20105;-77
2022/10/08 09:44:55;;;;;;;0.30;0.30;;;15.40;99.90;;;;;;4420677;32;20069;-76
2022/10/08 09:47:22;;;;;;;1.55;0.82;;;15.50;99.90;;;;;;4416240;32;20093;-76
2022/10/08 09:50:11;;;;;;;0.30;0.30;;;15.70;99.90;;;;;;4419120;32;20057;-76
2022/10/08 09:52:39;;;;;;;1.70;0.65;;;15.70;99.90;;;;;;4396748;32;20074;-76
2022/10/08 09:55:16;;;;;;;4.10;0.98;;;15.70;99.90;;;;;;4419215;32;20065;-76
2022/10/08 09:57:49;;;;;;;0.30;0.30;;;15.70;99.90;;;;;;4418386;32;20073;-76
2022/10/08 10:00:36;;;;;;;1.12;0.98;;;15.90;99.90;;;;;;4422420;32;20131;-75
2022/10/08 10:03:06;;;;;;;0.30;0.30;;;16.00;99.90;;;;;;4400857;32;20237;-75
2022/10/08 10:05:34;;;;;;;6.65;0.68;;;16.00;99.90;;;;;;4398986;32;20089;-76
2022/10/08 10:07:59;;;;;;;42.97;3.53;;;16.00;99.90;;;;;;4413344;32;20074;-76
2022/10/08 10:10:33;;;;;;;5.75;1.33;;;15.90;99.90;;;;;;4423451;32;20094;-77
2022/10/08 10:13:08;;;;;;;1.45;1.10;;;15.80;99.90;;;;;;4417639;32;20093;-76
2022/10/08 10:15:58;;;;;;;1.33;0.60;;;15.70;99.90;;;;;;4416626;32;20085;-76
2022/10/08 10:18:30;;;;;;;0.30;0.30;;;15.70;99.90;;;;;;4405274;32;20066;-77
2022/10/08 10:21:01;;;;;;;0.60;0.60;;;15.80;99.90;;;;;;4416486;32;20112;-76
2022/10/08 10:23:39;;;;;;;2.35;0.88;;;15.70;99.90;;;;;;4418886;32;20189;-76
2022/10/08 10:26:14;;;;;;;0.73;0.52;;;15.70;99.90;;;;;;4398963;32;20081;-77
2022/10/08 10:28:44;;;;;;;0.68;0.68;;;15.70;99.90;;;;;;4417009;32;20089;-76
2022/10/08 10:31:18;;;;;;;0.40;0.40;;;15.60;99.90;;;;;;4419547;32;21266;-76
2022/10/08 10:33:56;;;;;;;0.50;0.50;;;15.60;99.90;;;;;;4404813;32;20061;-77
2022/10/08 10:36:25;;;;;;;0.40;0.40;;;15.60;99.90;;;;;;4403126;32;20549;-76
2022/10/08 10:39:07;;;;;;;0.50;0.50;;;15.60;99.90;;;;;;4421383;32;20086;-75
2022/10/08 10:41:42;;;;;;;0.50;0.50;;;15.50;99.90;;;;;;4413815;32;20149;-78
2022/10/08 10:44:13;;;;;;;0.77;0.65;;;15.40;99.90;;;;;;4417440;32;20835;-76
2022/10/08 10:46:42;;;;;;;3.35;1.73;;;15.20;99.90;;;;;;4417918;32;20086;-77
2022/10/08 10:49:16;;;;;;;0.47;0.47;;;15.20;99.90;;;;;;4417321;32;20404;-76
2022/10/08 10:51:54;;;;;;;5.45;1.15;;;15.10;99.90;;;;;;4416207;32;20127;-76
2022/10/08 10:54:43;;;;;;;0.30;0.30;;;15.10;99.90;;;;;;4416282;32;20086;-76
2022/10/08 10:57:21;;;;;;;3.25;0.62;;;15.10;99.90;;;;;;4402667;32;20114;-76
2022/10/08 11:00:01;;;;;;;20.12;0.62;;;15.10;99.90;;;;;;4418302;32;20065;-76
2022/10/08 11:02:52;;;;;;;0.65;0.65;;;15.10;99.90;;;;;;4412797;32;20505;-76
2022/10/08 11:05:22;;;;;;;0.55;0.55;;;15.20;99.90;;;;;;4397253;32;20165;-74
2022/10/08 11:07:58;;;;;;;3.10;0.97;;;15.10;99.90;;;;;;4417488;32;20066;-77
2022/10/08 11:10:31;;;;;;;0.40;0.40;;;15.20;99.90;;;;;;4421388;32;20506;-77
2022/10/08 11:13:19;;;;;;;0.40;0.40;;;15.10;99.90;;;;;;4401222;32;20521;-77
2022/10/08 11:15:58;;;;;;;1.65;1.02;;;15.20;99.90;;;;;;4404531;32;20155;-77
2022/10/08 11:18:39;;;;;;;0.57;0.57;;;15.20;99.90;;;;;;4415382;32;20094;-77
2022/10/08 11:21:27;;;;;;;0.77;0.60;;;15.20;99.90;;;;;;4419973;32;20085;-77
2022/10/08 11:24:21;;;;;;;0.55;0.50;;;15.10;99.90;;;;;;4402897;32;20065;-78
2022/10/08 11:27:26;;;;;;;1.33;0.88;;;15.00;99.90;;;;;;4406229;32;20664;-78
2022/10/08 11:30:04;;;;;;;3.20;1.00;;;14.90;99.90;;;;;;4406294;32;20073;-77
2022/10/08 11:32:31;;;;;;;0.45;0.45;;;14.80;99.90;;;;;;4413914;32;20189;-77
2022/10/08 11:35:13;;;;;;;3.72;0.70;;;14.80;99.90;;;;;;4397050;32;20094;-77
2022/10/08 11:38:19;;;;;;;0.55;0.55;;;14.70;99.90;;;;;;4408749;32;20085;-77
2022/10/08 11:40:58;;;;;;;0.40;0.40;;;14.60;99.90;;;;;;4400117;32;20080;-77
2022/10/08 11:43:31;;;;;;;2.58;1.58;;;14.50;99.90;;;;;;4421437;32;20078;-77
2022/10/08 11:46:32;;;;;;;6.50;0.70;;;14.40;99.90;;;;;;4419602;32;20069;-77
2022/10/08 11:49:02;;;;;;;1.25;1.17;;;14.20;99.90;;;;;;4405446;32;20088;-77
2022/10/08 11:51:30;;;;;;;0.77;0.77;;;14.10;99.90;;;;;;4401711;32;20074;-77
2022/10/08 11:54:20;;;;;;;0.32;0.32;;;14.00;99.90;;;;;;4415533;32;20090;-76
2022/10/08 11:56:50;;;;;;;0.70;0.70;;;14.00;99.90;;;;;;4404587;32;20085;-76
2022/10/08 11:59:41;;;;;;;0.40;0.40;;;14.10;99.90;;;;;;4416768;32;20074;-76
2022/10/08 12:02:23;;;;;;;;;;;14.10;99.90;;;;;;4404278;32;20506;-77
2022/10/08 12:04:51;;;;;;;0.40;0.40;;;14.20;99.90;;;;;;4397746;32;20425;-76
2022/10/08 12:07:26;;;;;;;0.88;0.80;;;14.30;99.90;;;;;;4410831;32;20077;-76
2022/10/08 12:10:20;;;;;;;8.05;1.42;;;14.40;99.90;;;;;;4419462;32;20514;-77
2022/10/08 12:12:52;;;;;;;0.50;0.50;;;14.50;99.90;;;;;;4409927;32;20066;-76
2022/10/08 12:15:28;;;;;;;2.67;1.00;;;14.60;99.90;;;;;;4414735;32;20090;-77
2022/10/08 12:17:58;;;;;;;1.85;0.60;;;14.80;99.90;;;;;;4417943;32;20077;-77
2022/10/08 12:20:26;;;;;;;0.73;0.70;;;14.90;99.90;;;;;;4415121;32;20061;-77
2022/10/08 12:22:59;;;;;;;7.12;1.52;;;15.00;99.90;;;;;;4416960;32;20093;-76
2022/10/08 12:25:31;;;;;;;1.42;0.40;;;15.00;99.90;;;;;;4417758;32;20517;-77
2022/10/08 12:28:18;;;;;;;0.40;0.40;;;15.10;99.90;;;;;;4418340;32;20116;-77
2022/10/08 12:30:50;;;;;;;20.08;0.65;;;15.30;99.90;;;;;;4406746;32;20092;-78
2022/10/08 12:33:16;;;;;;;0.50;0.50;;;15.20;99.90;;;;;;4392970;32;20491;-77
2022/10/08 12:36:21;;;;;;;0.50;0.50;;;15.20;99.90;;;;;;4396931;32;21398;-76
2022/10/08 12:39:05;;;;;;;1.25;0.57;;;15.10;99.90;;;;;;4407969;32;20099;-77
2022/10/08 12:41:56;;;;;;;0.40;0.40;;;15.10;99.90;;;;;;4400193;32;20102;-76
2022/10/08 12:44:51;;;;;;;0.60;0.50;;;15.00;99.90;;;;;;4404942;32;20109;-77
2022/10/08 12:47:34;;;;;;;0.40;0.40;;;15.10;99.90;;;;;;4392214;32;20367;-76
2022/10/08 12:50:29;;;;;;;0.47;0.47;;;15.40;99.90;;;;;;4419603;32;20090;-77
2022/10/08 12:52:59;;;;;;;5.37;1.75;;;15.60;99.90;;;;;;4403778;32;20580;-76
2022/10/08 12:55:24;;;;;;;0.50;0.50;;;15.60;99.90;;;;;;4415957;32;20123;-77
2022/10/08 12:57:51;;;;;;;0.40;0.40;;;15.60;99.90;;;;;;4413723;32;20085;-77
2022/10/08 13:00:22;;;;;;;1.12;0.98;;;15.70;99.90;;;;;;4414635;32;20085;-76
2022/10/08 13:03:00;;;;;;;0.90;0.68;;;15.60;99.90;;;;;;4408621;32;20093;-76
2022/10/08 13:05:32;;;;;;;1.00;0.70;;;15.60;99.90;;;;;;4385720;32;20723;-76
2022/10/08 13:07:58;;;;;;;0.70;0.70;;;15.50;99.90;;;;;;4411409;32;20085;-77
2022/10/08 13:10:27;;;;;;;0.40;0.40;;;15.60;99.90;;;;;;4414886;32;20073;-76